Flight Track Log - Related Links

Times and Time Zones

All times are in EDT time to prevent confusion due to time zone crossing. See the TCF7318 flight status page for this flight to view local times or setup timezone preferences in your user account.

Time Position Orientation Groundspeed Altitude Reporting Facility
EDT Latitude Longitude Course Direction KTS MPH feet Rate Location/Type
Tue 11:26:43 AM 29.9597 -95.3461 41° Northeast 168 193 800  Level Houston Center
Tue 11:28:07 AM 29.9819 -95.3756 265° West 222 255 3,000 1,653 Climbing Houston Center
Tue 11:28:21 AM 30.0039 -95.3697 13° North 250 288 3,500 1,839 Climbing Houston Center
Tue 11:29:09 AM 30.0542 -95.3633 North 255 293 4,900 1,475 Climbing Houston Center
Tue 11:29:22 AM 30.0789 -95.3631 North 275 316 5,000 387 Climbing Houston Center
Tue 11:30:00 AM 30.3455 -95.0436 35° Northeast  Level FlightAware Approximate
Tue 11:30:11 AM 30.1311 -95.3586 North 274 315 5,300  Level Houston Center
Tue 11:30:24 AM 30.1578 -95.3514 13° North 279 321 6,300 3,000 Climbing Houston Center
Tue 11:31:00 AM 30.4336 -94.9664 41° Northeast  Level FlightAware Approximate
Tue 11:31:13 AM 30.1947 -95.3158 40° Northeast 274 315 8,400  Level Houston Center
Tue 11:31:25 AM 30.2153 -95.2911 46° Northeast 283 326 9,500 2,419 Climbing Houston Center
Tue 11:32:15 AM 30.2639 -95.2339 45° Northeast 291 335 10,900 1,727 Climbing Houston Center
Tue 11:32:31 AM 30.2836 -95.2125 43° Northeast 344 396 11,400 2,190 Climbing Houston Center
Tue 11:33:18 AM 30.3308 -95.1547 47° Northeast 335 386 13,200 2,202 Climbing Houston Center
Tue 11:34:20 AM 30.3989 -95.0742 46° Northeast 345 397 15,400 2,081 Climbing Houston Center
Tue 11:35:22 AM 30.4717 -94.9903 45° Northeast 359 413 17,500 1,935 Climbing Houston Center
Tue 11:36:24 AM 30.5439 -94.9036 46° Northeast 371 427 19,400 1,887 Climbing Houston Center
Tue 11:37:26 AM 30.6492 -94.8192 35° Northeast 383 441 21,400 1,790 Climbing Houston Center
Tue 11:38:28 AM 30.7403 -94.7486 34° Northeast 390 449 23,100 1,632 Climbing Houston Center
Tue 11:39:31 AM 30.8317 -94.6778 34° Northeast 395 455 24,800 1,536 Climbing Houston Center
Tue 11:40:33 AM 30.9228 -94.6061 34° Northeast 397 457 26,300 1,306 Climbing Houston Center
Tue 11:41:35 AM 31.0161 -94.5344 33° Northeast 402 463 27,500 1,210 Climbing Houston Center
Tue 11:42:37 AM 31.1294 -94.4469 33° Northeast 410 472 28,800 1,067 Climbing Houston Center
Tue 11:44:18 AM 31.2781 -94.3339 33° Northeast 414 476 30,400 1,067 Climbing Memphis Center
Tue 11:45:20 AM 31.3756 -94.2553 35° Northeast 418 481 31,700 1,500 Climbing Memphis Center
Tue 11:46:22 AM 31.4847 -94.1669 35° Northeast 411 473 33,500 1,258 Climbing Memphis Center
Tue 11:47:24 AM 31.5747 -94.0953 34° Northeast 401 461 34,300 726 Climbing Memphis Center
Tue 11:48:26 AM 31.6639 -94.0269 33° Northeast 393 452 35,000 339 Climbing Memphis Center
Tue 11:49:28 AM 31.7544 -93.9586 33° Northeast 389 448 35,000  Level Memphis Center
Tue 11:50:30 AM 31.8314 -93.8572 48° Northeast 406 467 35,000  Level Memphis Center
Tue 11:51:33 AM 31.9153 -93.7308 52° Northeast 411 473 35,000  Level Memphis Center
Tue 11:52:35 AM 31.9847 -93.6253 52° Northeast 411 473 35,000  Level Memphis Center
Tue 11:53:37 AM 32.0536 -93.5211 52° Northeast 411 473 35,000  Level Memphis Center
Tue 11:54:39 AM 32.1231 -93.4128 53° Northeast 411 473 35,000  Level Memphis Center
Tue 11:55:41 AM 32.1928 -93.3058 52° Northeast 411 473 35,000  Level Memphis Center
Tue 11:56:43 AM 32.2628 -93.1983 52° Northeast 412 474 35,000  Level Memphis Center
Tue 11:57:45 AM 32.3472 -93.0675 53° Northeast 415 478 35,000  Level Memphis Center
Tue 11:58:47 AM 32.4172 -92.9581 53° Northeast 417 480 35,000  Level Memphis Center
Tue 11:59:49 AM 32.4878 -92.8489 53° Northeast 417 480 35,000  Level Memphis Center
Tue 12:00:19 PM 32.5303 -92.7811 53° Northeast 419 482 35,000  Level Fort Worth Center
Tue 12:01:21 PM 32.6003 -92.6706 53° Northeast 420 483 35,000  Level Fort Worth Center
Tue 12:02:23 PM 32.6708 -92.5617 52° Northeast 420 483 35,000  Level Fort Worth Center
Tue 12:03:25 PM 32.7403 -92.4511 53° Northeast 419 482 35,000  Level Fort Worth Center
Tue 12:04:27 PM 32.8103 -92.3411 53° Northeast 419 482 35,000  Level Fort Worth Center
Tue 12:05:29 PM 32.8797 -92.2303 53° Northeast 419 482 35,000  Level Fort Worth Center
Tue 12:06:31 PM 32.9650 -92.0986 52° Northeast 419 482 35,000  Level Fort Worth Center
Tue 12:07:04 PM 32.9944 -92.0547 51° Northeast 421 484 35,000  Level Memphis Center
Tue 12:08:06 PM 33.0731 -91.9264 54° Northeast 421 484 35,000  Level Memphis Center
Tue 12:09:08 PM 33.1431 -91.8150 53° Northeast 421 484 35,000  Level Memphis Center
Tue 12:10:10 PM 33.2136 -91.7025 53° Northeast 421 484 35,000  Level Memphis Center
Tue 12:11:12 PM 33.2833 -91.5892 54° Northeast 421 484 35,000  Level Memphis Center
Tue 12:12:14 PM 33.3683 -91.4519 53° Northeast 426 490 35,000  Level Memphis Center
Tue 12:13:16 PM 33.4408 -91.3369 53° Northeast 428 493 35,000  Level Memphis Center
Tue 12:14:18 PM 33.5131 -91.2211 53° Northeast 431 496 35,000  Level Memphis Center
Tue 12:15:20 PM 33.5839 -91.1028 54° Northeast 434 499 35,000  Level Memphis Center
Tue 12:16:22 PM 33.6564 -90.9856 53° Northeast 435 501 35,000  Level Memphis Center
Tue 12:17:24 PM 33.7286 -90.8669 54° Northeast 439 505 35,000  Level Memphis Center
Tue 12:18:26 PM 33.8147 -90.7247 54° Northeast 439 505 35,000  Level Memphis Center
Tue 12:19:29 PM 33.8825 -90.6128 54° Northeast 439 505 35,000  Level Memphis Center
Tue 12:20:31 PM 33.9550 -90.4958 53° Northeast 439 505 35,000  Level Memphis Center
Tue 12:21:33 PM 34.0275 -90.3758 54° Northeast 439 505 35,000  Level Memphis Center
Tue 12:22:35 PM 34.1131 -90.2333 54° Northeast 439 505 35,000  Level Memphis Center
Tue 12:23:37 PM 34.1842 -90.1133 54° Northeast 439 505 35,000  Level Memphis Center
Tue 12:24:39 PM 34.2553 -89.9933 54° Northeast 440 506 35,000  Level Memphis Center
Tue 12:25:41 PM 34.3267 -89.8742 54° Northeast 440 506 35,000  Level Memphis Center
Tue 12:26:43 PM 34.3981 -89.7539 54° Northeast 440 506 35,000  Level Memphis Center
Tue 12:27:45 PM 34.4836 -89.6086 54° Northeast 441 507 35,000  Level Memphis Center
Tue 12:28:47 PM 34.5547 -89.4875 54° Northeast 442 509 35,000  Level Memphis Center
Tue 12:29:49 PM 34.6253 -89.3644 55° Northeast 445 512 35,000  Level Memphis Center
Tue 12:30:51 PM 34.6969 -89.2411 55° Northeast 447 514 35,000  Level Memphis Center
Tue 12:31:53 PM 34.7847 -89.0933 54° Northeast 449 517 35,000  Level Memphis Center
Tue 12:32:55 PM 34.8567 -88.9689 55° Northeast 451 519 35,000  Level Memphis Center
Tue 12:33:58 PM 34.9292 -88.8447 55° Northeast 451 519 35,000  Level Memphis Center
Tue 12:35:00 PM 35.0011 -88.7194 55° Northeast 451 519 35,000  Level Memphis Center
Tue 12:36:02 PM 35.0731 -88.5931 55° Northeast 452 520 35,000  Level Memphis Center
Tue 12:37:04 PM 35.1556 -88.4492 55° Northeast 454 522 35,000  Level Memphis Center
Tue 12:38:06 PM 35.2275 -88.3214 55° Northeast 454 522 35,000  Level Memphis Center
Tue 12:39:08 PM 35.3014 -88.1922 55° Northeast 456 525 35,000  Level Memphis Center
Tue 12:40:10 PM 35.3744 -88.0639 55° Northeast 456 525 35,000  Level Memphis Center
Tue 12:41:12 PM 35.4575 -87.9158 55° Northeast 458 527 35,000  Level Memphis Center
Tue 12:42:14 PM 35.5319 -87.7847 55° Northeast 461 531 35,000  Level Memphis Center
Tue 12:43:16 PM 35.6050 -87.6528 56° Northeast 461 531 35,000  Level Memphis Center
Tue 12:44:18 PM 35.6800 -87.5206 55° Northeast 465 535 35,000  Level Memphis Center
Tue 12:45:20 PM 35.7533 -87.3867 56° Northeast 465 535 35,000  Level Memphis Center
Tue 12:46:23 PM 35.8400 -87.2306 56° Northeast 467 537 35,000  Level Memphis Center
Tue 12:47:25 PM 35.9136 -87.0958 56° Northeast 469 540 35,000  Level Memphis Center
Tue 12:48:27 PM 35.9875 -86.9597 56° Northeast 472 543 35,000  Level Memphis Center
Tue 12:49:29 PM 36.0606 -86.8242 56° Northeast 472 543 35,000  Level Memphis Center
Tue 12:50:31 PM 36.1325 -86.6864 57° Northeast 474 545 35,000  Level Memphis Center
Tue 12:51:33 PM 36.1925 -86.5086 67° East 482 555 35,000  Level Memphis Center
Tue 12:52:35 PM 36.2428 -86.3544 68° East 481 554 35,000  Level Memphis Center
Tue 12:53:37 PM 36.2931 -86.1997 68° East 482 555 35,000  Level Memphis Center
Tue 12:54:39 PM 36.3442 -86.0411 68° East 486 559 35,000  Level Memphis Center
Tue 12:55:41 PM 36.3942 -85.8842 68° East 487 560 35,000  Level Memphis Center
Tue 12:56:33 PM 36.4353 -85.7569 68° East 486 559 35,000  Level Indianapolis Center
Tue 12:57:35 PM 36.4842 -85.5975 69° East 488 562 35,000  Level Indianapolis Center
Tue 12:58:37 PM 36.5453 -85.4050 68° East 492 566 35,000  Level Indianapolis Center
Tue 12:59:39 PM 36.5947 -85.2456 69° East 492 566 35,000  Level Indianapolis Center
Tue 01:00:41 PM 36.6442 -85.0836 69° East 493 567 35,000  Level Indianapolis Center
Tue 01:01:43 PM 36.6947 -84.9203 69° East 499 574 35,000  Level Indianapolis Center
Tue 01:02:45 PM 36.7444 -84.7575 69° East 501 577 35,000  Level Indianapolis Center
Tue 01:03:46 PM 36.7933 -84.5922 70° East 501 577 35,000  Level Indianapolis Center
Tue 01:04:48 PM 36.8464 -84.4189 69° East 503 579 35,000  Level Indianapolis Center
Tue 01:05:50 PM 36.8964 -84.2553 69° East 503 579 35,000  Level Indianapolis Center
Tue 01:06:52 PM 36.9456 -84.0917 69° East 503 579 35,000  Level Indianapolis Center
Tue 01:07:54 PM 37.0028 -83.8986 70° East 503 579 35,000  Level Indianapolis Center
Tue 01:08:56 PM 37.0511 -83.7325 70° East 504 580 35,000  Level Indianapolis Center
Tue 01:09:59 PM 37.0992 -83.5672 70° East 504 580 35,000  Level Indianapolis Center
Tue 01:11:01 PM 37.1483 -83.4014 70° East 504 580 35,000  Level Indianapolis Center
Tue 01:12:03 PM 37.1961 -83.2336 70° East 504 580 35,000  Level Indianapolis Center
Tue 01:13:05 PM 37.2453 -83.0658 70° East 504 580 35,000  Level Indianapolis Center
Tue 01:14:07 PM 37.3014 -82.8678 70° East 506 582 35,000  Level Indianapolis Center
Tue 01:15:09 PM 37.3494 -82.6975 70° East 509 586 35,000  Level Indianapolis Center
Tue 01:16:11 PM 37.3969 -82.5281 71° East 509 586 35,000  Level Indianapolis Center
Tue 01:17:13 PM 37.4444 -82.3572 71° East 510 587 35,000  Level Indianapolis Center
Tue 01:18:15 PM 37.4914 -82.1864 71° East 512 589 35,000  Level Indianapolis Center
Tue 01:19:17 PM 37.5392 -82.0156 71° East 512 589 35,000  Level Indianapolis Center
Tue 01:20:19 PM 37.5858 -81.8456 71° East 512 589 35,000  Level Indianapolis Center
Tue 01:21:21 PM 37.6408 -81.6439 71° East 514 592 35,000  Level Indianapolis Center
Tue 01:22:23 PM 37.6828 -81.4908 71° East 518 596 35,000  Level Indianapolis Center
Tue 01:23:25 PM 37.7375 -81.2844 71° East 518 596 35,000  Level Indianapolis Center
Tue 01:24:27 PM 37.7789 -81.1122 73° East 518 596 35,000  Level Indianapolis Center
Tue 01:25:29 PM 37.7928 -80.9300 84° East 523 602 35,000  Level Indianapolis Center
Tue 01:26:31 PM 37.8056 -80.7486 85° East 522 601 35,000  Level Indianapolis Center
Tue 01:27:36 PM 37.8186 -80.5419 85° East 512 589 35,000  Level Washington Center
Tue 01:28:36 PM 37.8303 -80.3586 85° East 517 595 35,000  Level Washington Center
Tue 01:29:37 PM 37.8417 -80.1753 85° East 517 595 35,000  Level Washington Center
Tue 01:31:41 PM 37.8619 -79.8022 86° East 521 600 35,000  Level Indianapolis Center
Tue 01:32:36 PM 37.8753 -79.6511 84° East 512 589 35,000  Level Washington Center
Tue 01:33:36 PM 37.8856 -79.4650 86° East 517 595 35,000  Level Washington Center
Tue 01:34:37 PM 37.8975 -79.2839 85° East 517 595 35,000  Level Washington Center
Tue 01:35:37 PM 37.9069 -79.1053 86° East 512 589 35,000  Level Washington Center
Tue 01:36:38 PM 37.9289 -78.9247 81° East 512 589 35,000  Level Washington Center
Tue 01:37:38 PM 37.9483 -78.7464 82° East 517 595 35,000  Level Washington Center
Tue 01:38:36 PM 37.9697 -78.5631 82° East 517 595 35,000  Level Washington Center
Tue 01:39:37 PM 37.9906 -78.3847 82° East 517 595 35,000  Level Washington Center
Tue 01:40:38 PM 38.0114 -78.2061 82° East 517 595 35,000  Level Washington Center
Tue 01:41:36 PM 38.0258 -78.0089 85° East 517 595 35,000  Level Washington Center
Tue 01:42:37 PM 38.0314 -77.8325 88° East 511 588 35,000  Level Washington Center
Tue 01:43:37 PM 38.0431 -77.6536 85° East 511 588 35,000  Level Washington Center
Tue 01:44:38 PM 38.0522 -77.4692 86° East 517 595 35,000  Level Washington Center
Tue 01:45:36 PM 38.0653 -77.2903 85° East 517 595 35,000  Level Washington Center
Tue 01:46:37 PM 38.0758 -77.1244 85° East 517 595 35,000  Level Washington Center
Tue 01:47:38 PM 38.1217 -76.9536 71° East 522 601 35,000  Level Washington Center
Tue 01:48:36 PM 38.2086 -76.8100 52° Northeast 497 572 35,000  Level Washington Center
Tue 01:49:36 PM 38.2978 -76.6686 51° Northeast 502 578 35,000  Level Washington Center
Tue 01:50:37 PM 38.3928 -76.5161 51° Northeast 502 578 35,000  Level Washington Center
Tue 01:51:38 PM 38.4644 -76.4031 51° Northeast 502 578 35,000  Level Washington Center
Tue 01:52:38 PM 38.5697 -76.2289 52° Northeast 511 588 35,000 -814 Level Washington Center
Tue 01:53:36 PM 38.6600 -76.0889 50° Northeast 511 588 33,400 -2,186 Descending Washington Center
Tue 01:54:36 PM 38.7606 -75.9617 45° Northeast 504 580 30,700 -2,678 Descending Washington Center
Tue 01:55:37 PM 38.8733 -75.8556 36° Northeast 498 573 28,000 -1,820 Descending Washington Center
Tue 01:56:38 PM 38.9778 -75.7572 36° Northeast 487 560 27,000 -504 Descending Washington Center
Tue 01:57:36 PM 39.0842 -75.6558 36° Northeast 476 548 27,000  Level Washington Center
Tue 01:58:37 PM 39.1925 -75.5542 36° Northeast 476 548 27,000  Level Washington Center
Tue 01:59:37 PM 39.2967 -75.4575 36° Northeast 476 548 27,000 -149 Level Washington Center
Tue 02:00:38 PM 39.4069 -75.3606 34° Northeast 476 548 26,700 -1,300 Descending Washington Center
Tue 02:01:37 PM 39.5111 -75.2714 33° Northeast 465 535 24,400 -2,269 Descending Washington Center
Tue 02:02:37 PM 39.6025 -75.1850 36° Northeast 437 503 22,200 -1,983 Descending Washington Center
Tue 02:03:38 PM 39.6833 -75.1089 36° Northeast 404 465 20,400 -2,000 Descending Washington Center
Tue 02:04:37 PM 39.7808 -75.0272 33° Northeast 382 440 18,200 -2,017 Descending Washington Center
Tue 02:05:37 PM 39.8578 -74.9564 35° Northeast 374 430 16,400 -1,913 Descending Washington Center
Tue 02:07:17 PM 39.9833 -74.8000 44° Northeast 359 413 13,100 -1,988 Descending New York TRACON
Tue 02:08:17 PM 40.0500 -74.7167 44° Northeast 342 394 11,100 -1,550 Descending New York TRACON
Tue 02:09:17 PM 40.1167 -74.6167 49° Northeast 314 361 10,000 -524 Descending New York TRACON
Tue 02:10:23 PM 40.1833 -74.5667 30° Northeast 285 328 10,000  Level New York TRACON
Tue 02:11:23 PM 40.2667 -74.5333 17° North 285 328 10,000 -496 Level New York TRACON
Tue 02:12:24 PM 40.3167 -74.4667 45° Northeast 289 333 9,000 -1,053 Descending New York TRACON
Tue 02:13:17 PM 40.3667 -74.3833 52° Northeast 282 325 8,000 -531 Descending New York TRACON
Tue 02:14:17 PM 40.4167 -74.3167 45° Northeast 281 323 8,000  Level New York TRACON
Tue 02:15:17 PM 40.4667 -74.2333 52° Northeast 282 325 8,000 -400 Level New York TRACON
Tue 02:16:17 PM 40.5000 -74.1500 62° Northeast 283 326 7,200 -1,429 Descending New York TRACON
Tue 02:17:23 PM 40.5667 -74.0500 49° Northeast 281 323 5,000 -1,524 Descending New York TRACON
Tue 02:18:23 PM 40.6333 -74.0000 30° Northeast 275 316 4,000 -500 Descending New York TRACON
Tue 02:19:23 PM 40.7000 -73.9500 30° Northeast 279 321 4,000  Level New York TRACON
Tue 02:20:23 PM 40.7333 -73.8500 66° East 286 329 4,000 50 Level New York TRACON
Tue 02:21:23 PM 40.7667 -73.7667 62° Northeast 287 330 4,100  Climbing New York TRACON
Tue 02:22:17 PM 40.8167 -73.7333 27° Northeast 264 304 4,000 -158 Descending New York TRACON
Tue 02:23:17 PM 40.8833 -73.7000 21° North 201 231 3,800 -750 Descending New York TRACON
Tue 02:24:17 PM 40.9167 -73.7500 311° West 188 216 2,500 -900 Descending New York TRACON
Tue 02:25:17 PM 40.8833 -73.8000 229° Southwest 175 201 2,000 -667 Descending New York TRACON
Tue 02:26:23 PM 40.8333 -73.8333 207° Southwest 149 171 1,100 -700 Descending New York TRACON
Tue 02:27:17 PM 40.8000 -73.8500 201° Southwest 118 136 600 -556 Descending New York TRACON

Login

Don't have an account? Register now (free) for customized features, flight alerts, and more!